createdAt,value
2022-08-23T00:02:25.058Z,71095.41
2022-08-23T00:05:08.198Z,71091.31
2022-08-23T00:07:40.518Z,71106.69
2022-08-23T00:10:12.026Z,71113.59
2022-08-23T00:12:41.788Z,71084.72
2022-08-23T00:15:14.455Z,71087.16
2022-08-23T00:17:44.798Z,71123.34
2022-08-23T00:20:17.628Z,71109.97
2022-08-23T00:22:45.151Z,71120.41
2022-08-23T00:25:15.321Z,71149.41
2022-08-23T00:27:43.102Z,71140.53
2022-08-23T00:30:13.011Z,71169.06
2022-08-23T00:32:42.101Z,71142.69
2022-08-23T00:35:22.215Z,71184.44
2022-08-23T00:38:14.625Z,71144.97
2022-08-23T00:40:53.839Z,71144.88
2022-08-23T00:43:53.382Z,71159.94
2022-08-23T00:47:08.611Z,71116.06
2022-08-23T00:49:38.873Z,71142.09
2022-08-23T00:52:20.317Z,71170.53
2022-08-23T00:54:47.630Z,71157.91
2022-08-23T00:57:19.282Z,71208.75
2022-08-23T00:59:47.001Z,71221.78
2022-08-23T01:02:16.081Z,71118.69
2022-08-23T01:04:56.942Z,71230.09
2022-08-23T01:07:36.440Z,71186.84
2022-08-23T01:10:14.931Z,71217.09
2022-08-23T01:13:06.196Z,71223.63
2022-08-23T01:15:45.790Z,71149.97
2022-08-23T01:18:17.894Z,71165.59
2022-08-23T01:21:03.400Z,71187.47
2022-08-23T01:23:51.833Z,71212.38
2022-08-23T01:26:22.226Z,71226.59
2022-08-23T01:28:52.688Z,71190.47
2022-08-23T01:31:23.085Z,71161.63
2022-08-23T01:34:04.915Z,71234.88
2022-08-23T01:36:32.981Z,71264.50
2022-08-23T01:39:00.694Z,71218.63
2022-08-23T01:41:27.750Z,71239.00
2022-08-23T01:43:55.052Z,71287.06
2022-08-23T01:46:26.987Z,71240.19
2022-08-23T01:48:55.552Z,71259.19
2022-08-23T01:51:24.095Z,71228.69
2022-08-23T01:53:52.116Z,71212.94
2022-08-23T01:56:34.219Z,71204.66
2022-08-23T01:59:10.596Z,71175.31
2022-08-23T02:01:43.681Z,71233.09
2022-08-23T02:04:10.899Z,71242.88
2022-08-23T02:06:39.073Z,71137.25
2022-08-23T02:09:17.590Z,71189.84
2022-08-23T02:11:47.547Z,71159.94
2022-08-23T02:14:21.227Z,71170.59
2022-08-23T02:17:04.318Z,71171.84
2022-08-23T02:19:36.463Z,71219.47
2022-08-23T02:22:06.914Z,71225.13
2022-08-23T02:24:34.614Z,71205.63
2022-08-23T02:27:05.628Z,71214.78
2022-08-23T02:29:39.419Z,71268.69
2022-08-23T02:32:11.316Z,71242.00
2022-08-23T02:34:40.313Z,71247.97
2022-08-23T02:37:11.480Z,71322.34
2022-08-23T02:39:39.695Z,71277.00
2022-08-23T02:42:11.887Z,71319.06
2022-08-23T02:44:42.121Z,71250.41
2022-08-23T02:47:11.826Z,71287.41
2022-08-23T02:49:42.132Z,71310.19
2022-08-23T02:52:09.791Z,71273.16
2022-08-23T02:54:37.096Z,71298.66
2022-08-23T02:57:04.923Z,71332.13
2022-08-23T02:59:32.271Z,71332.72
2022-08-23T03:01:59.660Z,71300.41
2022-08-23T03:04:32.358Z,71349.28
2022-08-23T03:07:00.036Z,71391.34
2022-08-23T03:09:28.201Z,71359.66
2022-08-23T03:11:55.416Z,71384.84
2022-08-23T03:14:24.625Z,71317.59
2022-08-23T03:16:52.307Z,71345.47
2022-08-23T03:19:19.897Z,71361.78
2022-08-23T03:21:47.870Z,71363.22
2022-08-23T03:24:18.643Z,71391.66
2022-08-23T03:26:46.325Z,71394.34
2022-08-23T03:29:15.814Z,71397.56
2022-08-23T03:32:18.449Z,71410.91
2022-08-23T03:34:46.265Z,71436.41
2022-08-23T03:37:13.702Z,71335.69
2022-08-23T03:39:41.524Z,71436.97
2022-08-23T03:42:09.261Z,71431.06
2022-08-23T03:44:36.808Z,71363.25
2022-08-23T03:47:06.075Z,71405.56
2022-08-23T03:49:33.929Z,71380.69
2022-08-23T03:52:01.377Z,71391.63
2022-08-23T03:54:30.440Z,71350.50
2022-08-23T03:57:03.187Z,71376.25
2022-08-23T03:59:36.821Z,71388.09
2022-08-23T04:02:07.928Z,71438.16
2022-08-23T04:04:36.226Z,71401.44
2022-08-23T04:07:22.156Z,71364.41
2022-08-23T04:09:56.315Z,71396.69
2022-08-23T04:12:27.357Z,71380.09
2022-08-23T04:14:55.422Z,71381.28
2022-08-23T04:17:24.094Z,71360.53
2022-08-23T04:19:53.016Z,71377.13
2022-08-23T04:22:21.415Z,71349.28
2022-08-23T04:24:49.748Z,71320.22
2022-08-23T04:27:17.854Z,71237.53
2022-08-23T04:29:46.329Z,71241.13
2022-08-23T04:32:15.336Z,71169.13
2022-08-23T04:34:55.229Z,71159.53
2022-08-23T04:37:23.312Z,71166.28
2022-08-23T04:40:09.436Z,71207.09
2022-08-23T04:42:42.076Z,71194.28
2022-08-23T04:45:09.393Z,71263.34
2022-08-23T04:47:41.353Z,71211.78
2022-08-23T04:50:10.219Z,71250.28
2022-08-23T04:52:51.824Z,71216.63
2022-08-23T04:55:20.305Z,71259.81
2022-08-23T04:57:52.223Z,71252.94
2022-08-23T05:00:27.992Z,71218.34
2022-08-23T05:02:57.551Z,71242.84
2022-08-23T05:05:27.625Z,71152.56
2022-08-23T05:07:55.533Z,71181.78
2022-08-23T05:10:22.760Z,71242.53
2022-08-23T05:12:53.004Z,71330.88
2022-08-23T05:15:21.819Z,71218.53
2022-08-23T05:18:00.443Z,71325.25
2022-08-23T05:20:28.826Z,71207.84
2022-08-23T05:22:55.901Z,71183.91
2022-08-23T05:25:51.538Z,71182.09
2022-08-23T05:28:37.056Z,71240.09
2022-08-23T05:31:13.239Z,71196.28
2022-08-23T05:33:47.642Z,71194.50
2022-08-23T05:36:21.494Z,71141.75
2022-08-23T05:38:50.478Z,71246.00
2022-08-23T05:41:21.609Z,71267.34
2022-08-23T05:43:53.464Z,71263.25
2022-08-23T05:46:26.597Z,71248.38
2022-08-23T05:49:15.602Z,71214.56
2022-08-23T05:51:51.758Z,71246.59
2022-08-23T05:54:20.359Z,71247.81
2022-08-23T05:56:58.904Z,71224.63
2022-08-23T05:59:25.993Z,71239.41
2022-08-23T06:01:53.375Z,71182.78
2022-08-23T06:04:21.483Z,71126.94
2022-08-23T06:06:48.898Z,70981.06
2022-08-23T06:09:19.476Z,71180.38
2022-08-23T06:11:48.432Z,71167.84
2022-08-23T06:14:17.018Z,71191.94
2022-08-23T06:16:51.612Z,71155.16
2022-08-23T06:19:24.133Z,71187.19
2022-08-23T06:22:06.330Z,71199.94
2022-08-23T06:24:38.641Z,71136.34
2022-08-23T06:27:13.444Z,71199.38
2022-08-23T06:29:43.043Z,71154.72
2022-08-23T06:32:30.383Z,71217.44
2022-08-23T06:35:38.765Z,71231.72
2022-08-23T06:38:10.082Z,71190.19
2022-08-23T06:40:48.999Z,71170.03
2022-08-23T06:43:40.429Z,71190.88
2022-08-23T06:46:29.543Z,71195.31
2022-08-23T06:48:59.488Z,71221.25
2022-08-23T06:51:39.877Z,71170.22
2022-08-23T06:54:26.525Z,71185.34
2022-08-23T06:57:23.141Z,71119.09
2022-08-23T07:00:21.536Z,71110.59
2022-08-23T07:03:08.252Z,71134.31
2022-08-23T07:05:54.020Z,71120.38
2022-08-23T07:08:24.890Z,71124.50
2022-08-23T07:10:52.021Z,71083.59
2022-08-23T07:13:19.403Z,71137.56
2022-08-23T07:15:50.299Z,71140.91
2022-08-23T07:18:20.036Z,71073.13
2022-08-23T07:20:47.210Z,71077.25
2022-08-23T07:23:17.554Z,71148.44
2022-08-23T07:25:44.943Z,71119.34
2022-08-23T07:28:16.260Z,71136.78
2022-08-23T07:30:45.231Z,71067.03
2022-08-23T07:33:14.174Z,71107.38
2022-08-23T07:35:59.947Z,71130.72
2022-08-23T07:38:30.784Z,71117.69
2022-08-23T07:40:59.023Z,71077.88
2022-08-23T07:43:26.600Z,71099.53
2022-08-23T07:45:55.350Z,71106.97
2022-08-23T07:48:43.379Z,71068.75
2022-08-23T07:51:15.449Z,71133.91
2022-08-23T07:53:45.901Z,71118.44
2022-08-23T07:56:17.666Z,71115.03
2022-08-23T07:59:05.489Z,71134.03
2022-08-23T08:01:51.579Z,71153.31
2022-08-23T08:04:19.043Z,71123.00
2022-08-23T08:07:10.452Z,71126.53
2022-08-23T08:09:40.933Z,71103.97
2022-08-23T08:12:08.906Z,71123.59
2022-08-23T08:14:38.170Z,71130.72
2022-08-23T08:17:06.885Z,71185.28
2022-08-23T08:19:54.175Z,71134.69
2022-08-23T08:22:59.089Z,71182.38
2022-08-23T08:25:47.583Z,71174.53
2022-08-23T08:28:18.102Z,71211.09
2022-08-23T08:30:45.538Z,71212.56
2022-08-23T08:33:15.513Z,71235.19
2022-08-23T08:35:46.948Z,71209.91
2022-08-23T08:38:27.118Z,71190.88
2022-08-23T08:41:02.640Z,71209.91
2022-08-23T08:44:12.700Z,71222.88
2022-08-23T08:46:47.170Z,71321.56
2022-08-23T08:49:40.094Z,71197.03
2022-08-23T08:52:26.618Z,71217.56
2022-08-23T08:55:30.970Z,71207.84
2022-08-23T08:58:01.348Z,71186.31
2022-08-23T09:00:34.335Z,71233.25
2022-08-23T09:03:11.779Z,71232.59
2022-08-23T09:05:52.522Z,71248.94
2022-08-23T09:08:35.200Z,71281.13
2022-08-23T09:11:14.864Z,71253.03
2022-08-23T09:14:07.567Z,71335.25
2022-08-23T09:16:56.254Z,71364.19
2022-08-23T09:19:25.153Z,71328.88
2022-08-23T09:22:07.857Z,71403.34
2022-08-23T09:24:35.504Z,71407.38
2022-08-23T09:27:12.311Z,71416.56
2022-08-23T09:29:59.034Z,71454.63
2022-08-23T09:32:35.804Z,71465.13
2022-08-23T09:35:12.895Z,71378.38
2022-08-23T09:38:15.173Z,71335.06
2022-08-23T09:40:50.341Z,71324.34
2022-08-23T09:43:28.542Z,71344.56
2022-08-23T09:46:01.079Z,71351.09
2022-08-23T09:48:45.622Z,71398.19
2022-08-23T09:51:42.868Z,71391.06
2022-08-23T09:54:31.005Z,71354.72
2022-08-23T09:57:03.212Z,71431.34
2022-08-23T09:59:41.432Z,71391.34
2022-08-23T10:02:30.421Z,71402.00
2022-08-23T10:05:27.847Z,71489.47
2022-08-23T10:08:02.460Z,71370.56
2022-08-23T10:10:51.167Z,71464.91
2022-08-23T10:13:23.505Z,71454.06
2022-08-23T10:16:29.507Z,71442.88
2022-08-23T10:19:25.438Z,71462.38
2022-08-23T10:22:14.570Z,71474.81
2022-08-23T10:25:07.833Z,71462.28
2022-08-23T10:28:14.348Z,71462.06
2022-08-23T10:30:59.922Z,71459.38
2022-08-23T10:33:57.490Z,71399.03
2022-08-23T10:36:34.054Z,71418.25
2022-08-23T10:39:24.361Z,71474.59
2022-08-23T10:42:07.213Z,71428.44
2022-08-23T10:45:03.901Z,71453.69
2022-08-23T10:47:37.941Z,71444.75
2022-08-23T10:50:19.277Z,71437.31
2022-08-23T10:53:13.676Z,71410.41
2022-08-23T10:56:03.198Z,71416.63
2022-08-23T10:58:47.383Z,71447.97
2022-08-23T11:01:34.211Z,71367.06
2022-08-23T11:04:09.954Z,71381.56
2022-08-23T11:07:01.802Z,71322.03
2022-08-23T11:09:53.207Z,71374.31
2022-08-23T11:12:30.949Z,71325.34
2022-08-23T11:15:07.258Z,71406.50
2022-08-23T11:17:49.951Z,71387.06
2022-08-23T11:20:51.338Z,71378.38
2022-08-23T11:23:53.794Z,71376.22
2022-08-23T11:26:26.597Z,71404.75
2022-08-23T11:29:07.069Z,71393.50
2022-08-23T11:32:13.170Z,71403.34
2022-08-23T11:34:49.768Z,71383.41
2022-08-23T11:37:19.852Z,71414.72
2022-08-23T11:40:00.590Z,71412.13
2022-08-23T11:42:43.140Z,71420.75
2022-08-23T11:45:27.322Z,71413.53
2022-08-23T11:48:27.438Z,71395.63
2022-08-23T11:51:12.407Z,71428.72
2022-08-23T11:53:54.750Z,71403.84
2022-08-23T11:56:24.328Z,71449.63
2022-08-23T11:59:18.770Z,71430.75
2022-08-23T12:01:47.320Z,71411.56
2022-08-23T12:04:50.161Z,71440.16
2022-08-23T12:08:03.450Z,71495.25
2022-08-23T12:10:42.457Z,71449.66
2022-08-23T12:13:18.681Z,71469.28
2022-08-23T12:16:25.369Z,71491.03
2022-08-23T12:19:02.897Z,71503.50
2022-08-23T12:21:51.952Z,71469.84
2022-08-23T12:24:33.679Z,71472.78
2022-08-23T12:27:00.614Z,71500.47
2022-08-23T12:29:45.450Z,71526.66
2022-08-23T12:32:36.693Z,71527.81
2022-08-23T12:35:33.717Z,71523.25
2022-08-23T12:38:50.239Z,71512.41
2022-08-23T12:41:56.014Z,71510.25
2022-08-23T12:44:27.097Z,71517.69
2022-08-23T12:46:54.454Z,71448.41
2022-08-23T12:49:35.588Z,71524.69
2022-08-23T12:52:09.356Z,71487.47
2022-08-23T12:54:43.004Z,71481.34
2022-08-23T12:57:19.293Z,71450.84
2022-08-23T13:00:17.283Z,71523.28
2022-08-23T13:02:58.244Z,71489.59
2022-08-23T13:05:52.964Z,71484.84
2022-08-23T13:08:34.899Z,71475.94
2022-08-23T13:11:08.053Z,71498.81
2022-08-23T13:13:41.163Z,71410.94
2022-08-23T13:16:44.079Z,71529.50
2022-08-23T13:19:27.528Z,71501.81
2022-08-23T13:22:19.563Z,71507.66
2022-08-23T13:25:24.537Z,71515.09
2022-08-23T13:27:45.701Z,71559.09
2022-08-23T13:30:19.753Z,71551.84
2022-08-23T13:32:53.030Z,71574.41
2022-08-23T13:35:29.543Z,71581.78
2022-08-23T13:38:20.896Z,71629.19
2022-08-23T13:41:01.582Z,71613.34
2022-08-23T13:43:39.503Z,71572.75
2022-08-23T13:46:23.271Z,71627.06
2022-08-23T13:49:05.786Z,71611.50
2022-08-23T13:51:43.433Z,71608.88
2022-08-23T13:54:16.052Z,71574.16
2022-08-23T13:56:48.438Z,71621.44
2022-08-23T13:59:33.843Z,71572.81
2022-08-23T14:02:07.375Z,71561.56
2022-08-23T14:04:34.892Z,71598.56
2022-08-23T14:07:02.595Z,71556.75
2022-08-23T14:09:29.602Z,71645.19
2022-08-23T14:12:03.072Z,71603.22
2022-08-23T14:14:34.118Z,71568.56
2022-08-23T14:17:03.114Z,71607.06
2022-08-23T14:22:20.911Z,71588.91
2022-08-23T14:24:47.981Z,71599.66
2022-08-23T14:27:15.476Z,71627.41
2022-08-23T14:29:42.859Z,71615.81
2022-08-23T14:32:09.840Z,71634.59
2022-08-23T14:34:36.997Z,71631.78
2022-08-23T14:39:52.795Z,71638.28
2022-08-23T14:42:22.283Z,71679.72
2022-08-23T14:44:49.961Z,71692.84
2022-08-23T14:47:18.140Z,71663.91
2022-08-23T14:49:45.736Z,71702.31
2022-08-23T14:52:15.343Z,71683.81
2022-08-23T14:54:43.113Z,71718.47
2022-08-23T14:57:10.916Z,71666.13
2022-08-23T14:59:38.147Z,71665.88
2022-08-23T15:02:09.557Z,71723.75
2022-08-23T15:04:36.988Z,71706.41
2022-08-23T15:07:20.523Z,71688.19
2022-08-23T15:09:50.420Z,71701.00
2022-08-23T15:15:21.787Z,71708.72
2022-08-23T15:17:58.286Z,71730.16
2022-08-23T15:20:33.009Z,71765.94
2022-08-23T15:23:00.953Z,71666.78
2022-08-23T15:25:35.293Z,71753.16
2022-08-23T15:28:06.778Z,71704.53
2022-08-23T15:30:36.974Z,71685.06
2022-08-23T15:33:04.961Z,71733.22
2022-08-23T15:35:41.560Z,71739.72
2022-08-23T15:38:10.534Z,71677.22
2022-08-23T15:40:37.802Z,71774.94
2022-08-23T15:43:05.038Z,71713.63
2022-08-23T15:45:33.994Z,71785.31
2022-08-23T15:48:06.000Z,71701.56
2022-08-23T15:50:35.109Z,71669.50
2022-08-23T15:53:02.440Z,71678.72
2022-08-23T15:55:33.092Z,71696.91
2022-08-23T15:58:02.928Z,71740.41
2022-08-23T16:00:29.999Z,71751.72
2022-08-23T16:05:48.452Z,71766.56
2022-08-23T16:08:27.092Z,71758.72
2022-08-23T16:10:59.630Z,71805.94
2022-08-23T16:13:27.897Z,71767.56
2022-08-23T16:15:55.272Z,71775.69
2022-08-23T16:18:22.356Z,71823.13
2022-08-23T16:20:49.477Z,71794.63
2022-08-23T16:23:22.833Z,71811.41
2022-08-23T16:25:50.119Z,71752.06
2022-08-23T16:28:17.119Z,71841.25
2022-08-23T16:30:44.818Z,71699.00
2022-08-23T16:33:11.761Z,71730.19
2022-08-23T16:35:38.919Z,71706.31
2022-08-23T16:38:05.974Z,71674.34
2022-08-23T16:40:33.476Z,71708.38
2022-08-23T16:43:00.761Z,71729.06
2022-08-23T16:45:27.989Z,71705.47
2022-08-23T16:47:55.146Z,71699.06
2022-08-23T16:50:22.731Z,71637.38
2022-08-23T16:52:49.744Z,71689.09
2022-08-23T16:55:17.129Z,71771.56
2022-08-23T16:57:44.224Z,71677.75
2022-08-23T17:00:13.578Z,71667.16
2022-08-23T17:02:43.782Z,71627.44
2022-08-23T17:05:15.582Z,71681.88
2022-08-23T17:07:43.187Z,71724.28
2022-08-23T17:10:13.436Z,71647.16
2022-08-23T17:12:47.025Z,71680.97
2022-08-23T17:15:20.261Z,71625.44
2022-08-23T17:17:48.455Z,71655.06
2022-08-23T17:20:17.288Z,71663.75
2022-08-23T17:22:45.073Z,71646.47
2022-08-23T17:25:16.003Z,71622.53
2022-08-23T17:27:46.277Z,71616.78
2022-08-23T17:30:17.980Z,71616.56
2022-08-23T17:32:49.273Z,71640.44
2022-08-23T17:35:21.469Z,71655.94
2022-08-23T17:37:48.757Z,71623.50
2022-08-23T17:40:32.549Z,71624.09
2022-08-23T17:43:00.779Z,71626.72
2022-08-23T17:45:33.134Z,71651.78
2022-08-23T17:48:00.915Z,71661.41
2022-08-23T17:50:28.436Z,71608.59
2022-08-23T17:52:55.433Z,71612.47
2022-08-23T17:55:22.837Z,71600.53
2022-08-23T17:57:50.245Z,71605.47
2022-08-23T18:00:19.175Z,71640.06
2022-08-23T18:02:46.185Z,71600.00
2022-08-23T18:05:13.457Z,71650.91
2022-08-23T18:07:40.582Z,71588.84
2022-08-23T18:10:12.262Z,71594.34
2022-08-23T18:12:41.824Z,71629.13
2022-08-23T18:15:10.666Z,71531.97
2022-08-23T18:17:39.391Z,71545.88
2022-08-23T18:20:10.186Z,71558.06
2022-08-23T18:22:37.920Z,71602.13
2022-08-23T18:25:07.636Z,71566.59
2022-08-23T18:27:53.326Z,71580.72
2022-08-23T18:30:21.921Z,71554.09
2022-08-23T18:32:49.027Z,71517.28
2022-08-23T18:35:16.108Z,71518.03
2022-08-23T18:37:43.364Z,71571.78
2022-08-23T18:40:11.087Z,71556.31
2022-08-23T18:42:40.510Z,71546.84
2022-08-23T18:45:09.310Z,71548.59
2022-08-23T18:47:37.262Z,71513.47
2022-08-23T18:50:07.795Z,71549.22
2022-08-23T18:52:37.517Z,71561.81
2022-08-23T18:55:06.249Z,71546.63
2022-08-23T18:57:33.451Z,71518.84
2022-08-23T19:00:00.621Z,71546.31
2022-08-23T19:02:27.753Z,71544.50
2022-08-23T19:04:55.875Z,71571.34
2022-08-23T19:07:26.033Z,71550.47
2022-08-23T19:09:53.013Z,71580.94
2022-08-23T19:12:20.065Z,71492.00
2022-08-23T19:14:47.295Z,71542.41
2022-08-23T19:17:14.724Z,71529.69
2022-08-23T19:19:41.732Z,71618.47
2022-08-23T19:22:08.730Z,71531.72
2022-08-23T19:24:35.865Z,71529.03
2022-08-23T19:27:03.383Z,71510.88
2022-08-23T19:29:31.818Z,71527.03
2022-08-23T19:31:59.398Z,71564.78
2022-08-23T19:34:27.289Z,71508.06
2022-08-23T19:37:00.787Z,71512.06
2022-08-23T19:39:30.069Z,71547.81
2022-08-23T19:41:57.849Z,71498.59
2022-08-23T19:44:25.266Z,71522.16
2022-08-23T19:46:54.950Z,71527.22
2022-08-23T19:49:23.174Z,71504.03
2022-08-23T19:51:50.216Z,71527.72
2022-08-23T19:54:18.026Z,71484.41
2022-08-23T19:56:49.759Z,71515.53
2022-08-23T19:59:24.481Z,71570.78
2022-08-23T20:01:55.851Z,71507.84
2022-08-23T20:04:27.288Z,71527.63
2022-08-23T20:06:57.536Z,71515.63
2022-08-23T20:09:28.743Z,71565.25
2022-08-23T20:11:56.573Z,71549.31
2022-08-23T20:14:26.879Z,71581.81
2022-08-23T20:16:54.732Z,71544.19
2022-08-23T20:19:22.205Z,71538.69
2022-08-23T20:21:49.506Z,71538.34
2022-08-23T20:24:28.817Z,71529.09
2022-08-23T20:27:06.083Z,71504.94
2022-08-23T20:29:33.300Z,71465.56
2022-08-23T20:32:00.492Z,71556.56
2022-08-23T20:34:30.893Z,71542.25
2022-08-23T20:36:58.035Z,71527.63
2022-08-23T20:39:25.338Z,71490.59
2022-08-23T20:41:54.540Z,71583.38
2022-08-23T20:44:25.821Z,71548.59
2022-08-23T20:46:54.906Z,71546.91
2022-08-23T20:49:24.238Z,71543.63
2022-08-23T20:51:51.703Z,71497.00
2022-08-23T20:54:20.022Z,71541.09
2022-08-23T20:56:51.354Z,71560.19
2022-08-23T20:59:19.720Z,71508.31
2022-08-23T21:01:50.265Z,71512.50
2022-08-23T21:04:19.089Z,71486.22
2022-08-23T21:06:50.791Z,71524.22
2022-08-23T21:09:23.453Z,71682.03
2022-08-23T21:11:54.490Z,71539.97
2022-08-23T21:14:23.987Z,71520.44
2022-08-23T21:16:51.148Z,71537.00
2022-08-23T21:19:18.908Z,71497.97
2022-08-23T21:21:46.234Z,71547.97
2022-08-23T21:24:14.323Z,71557.91
2022-08-23T21:26:41.830Z,71554.97
2022-08-23T21:29:10.618Z,71523.09
2022-08-23T21:31:39.249Z,71513.25
2022-08-23T21:34:08.196Z,71532.00
2022-08-23T21:36:36.209Z,71549.22
2022-08-23T21:39:04.914Z,71529.91
2022-08-23T21:41:45.705Z,71546.63
2022-08-23T21:44:20.536Z,71518.69
2022-08-23T21:46:48.697Z,71484.13
2022-08-23T21:49:17.082Z,71536.97
2022-08-23T21:51:45.376Z,71550.41
2022-08-23T21:54:13.709Z,71522.41
2022-08-23T21:56:41.737Z,71504.53
2022-08-23T21:59:13.571Z,71528.41
2022-08-23T22:01:42.772Z,71505.06
2022-08-23T22:04:13.473Z,71506.34
2022-08-23T22:06:44.683Z,71501.94
2022-08-23T22:09:17.899Z,71552.84
2022-08-23T22:11:47.428Z,71558.88
2022-08-23T22:14:31.487Z,71513.00
2022-08-23T22:16:59.697Z,71489.13
2022-08-23T22:19:27.286Z,71549.00
2022-08-23T22:21:54.516Z,71540.06
2022-08-23T22:24:25.789Z,71542.13
2022-08-23T22:26:55.440Z,71552.84
2022-08-23T22:29:22.872Z,71535.00
2022-08-23T22:31:50.123Z,71523.22
2022-08-23T22:34:17.397Z,71493.31
2022-08-23T22:36:44.480Z,71460.16
2022-08-23T22:39:18.967Z,71441.88
2022-08-23T22:41:45.954Z,71455.50
2022-08-23T22:44:14.296Z,71424.84
2022-08-23T22:46:41.474Z,71429.75
2022-08-23T22:49:09.324Z,71509.88
2022-08-23T22:51:37.003Z,71527.47
2022-08-23T22:54:11.059Z,71489.28
2022-08-23T22:56:46.849Z,71542.38
2022-08-23T22:59:17.008Z,71485.28
2022-08-23T23:01:51.831Z,71481.66
2022-08-23T23:04:25.061Z,71531.91
2022-08-23T23:06:55.199Z,71518.84
2022-08-23T23:09:22.542Z,71494.44
2022-08-23T23:11:52.903Z,71540.31
2022-08-23T23:14:21.625Z,71521.88
2022-08-23T23:16:50.024Z,71483.16
2022-08-23T23:19:36.319Z,71494.72
2022-08-23T23:22:04.810Z,71558.66
2022-08-23T23:24:37.213Z,71572.84
2022-08-23T23:27:05.345Z,71527.84
2022-08-23T23:29:32.624Z,71501.88
2022-08-23T23:32:00.053Z,71521.34
2022-08-23T23:34:28.229Z,71554.69
2022-08-23T23:36:58.386Z,71533.84
2022-08-23T23:39:27.391Z,71550.53
2022-08-23T23:41:55.725Z,71639.97
2022-08-23T23:44:30.834Z,71516.19
2022-08-23T23:47:01.583Z,71543.38
2022-08-23T23:49:33.193Z,71531.44
2022-08-23T23:52:03.628Z,71546.97
2022-08-23T23:54:31.577Z,71527.94
2022-08-23T23:56:58.873Z,71450.31
2022-08-23T23:59:26.419Z,71560.66
